Time;durP1;ratioP1;P1;durP2;ratioP2;P2;SDS_P1;SDS_P2;PMS_P1;PMS_P2;Temp;Humidity;BMP_temperature;BMP_pressure;BME280_temperature;BME280_humidity;BME280_pressure;Samples;Min_cycle;Max_cycle;Signal;HPM_P1;HPM_P2
2022/06/24 04:13:55;;;;;;;;;;;;;;;;;;;;;
2022/06/24 04:24:03;;;;;;;;;;;;;;;;;;;;;
2022/06/24 04:26:32;;;;;;;2.97;1.60;;;;;;;20.45;67.59;98792.06;6127466;23;20612;-94
2022/06/24 04:37:23;;;;;;;;;;;;;;;;;;;;;
2022/06/24 04:39:47;;;;;;;3.33;1.93;;;;;;;20.97;68.25;98794.84;5880863;24;20161;-92
2022/06/24 04:42:20;;;;;;;5.40;1.63;;;;;;;21.13;68.15;98797.69;6066205;23;20183;-91
2022/06/24 04:44:46;;;;;;;5.43;2.13;;;;;;;21.19;68.88;98789.09;6103667;23;20194;-91
2022/06/24 04:47:11;;;;;;;2.17;1.10;;;;;;;21.31;69.11;98791.34;6128656;23;20584;-90
2022/06/24 04:49:37;;;;;;;3.27;1.70;;;;;;;21.47;69.03;98789.75;6102831;23;20167;-92
2022/06/24 04:52:15;;;;;;;5.60;1.93;;;;;;;21.64;69.01;98792.38;6103232;23;20160;-92
2022/06/24 04:54:58;;;;;;;2.80;1.50;;;;;;;21.80;69.39;98791.63;6103881;23;20199;-92
2022/06/24 05:00:10;;;;;;;2.87;1.90;;;;;;;22.13;70.50;98781.94;6107538;23;20170;-91
2022/06/24 05:02:36;;;;;;;5.37;2.07;;;;;;;22.17;71.44;98777.97;6103259;23;20607;-91
2022/06/24 05:05:03;;;;;;;3.97;2.03;;;;;;;22.24;71.70;98789.66;6128467;23;20176;-91
2022/06/24 05:07:51;;;;;;;3.50;2.00;;;;;;;22.49;71.40;98783.34;6127647;23;20152;-92
2022/06/24 05:10:17;;;;;;;3.97;2.53;;;;;;;22.69;70.73;98778.59;6103192;23;20148;-94
2022/06/24 05:12:42;;;;;;;4.67;2.23;;;;;;;22.80;69.31;98776.41;6133033;23;20151;-91
2022/06/24 05:15:17;;;;;;;5.63;2.07;;;;;;;22.90;70.02;98781.63;6158064;23;20466;-91
2022/06/24 05:17:45;;;;;;;4.93;2.00;;;;;;;23.08;69.39;98790.28;6132104;23;20153;-92
2022/06/24 05:20:11;;;;;;;3.83;2.10;;;;;;;23.25;69.33;98775.91;6132301;23;20513;-91
2022/06/24 05:22:38;;;;;;;3.37;1.90;;;;;;;23.48;67.85;98784.09;6131939;23;20151;-91
2022/06/24 05:25:06;;;;;;;4.57;2.20;;;;;;;23.54;65.99;98776.22;6131706;23;20270;-93
2022/06/24 05:27:37;;;;;;;4.67;2.17;;;;;;;23.58;66.23;98788.25;6131809;23;20226;-91
2022/06/24 05:30:03;;;;;;;3.00;1.80;;;;;;;23.79;66.08;98790.38;6132566;23;20155;-92
2022/06/24 05:32:33;;;;;;;5.17;2.30;;;;;;;24.11;65.22;98789.44;6132573;23;20169;-91
2022/06/24 05:35:06;;;;;;;6.83;2.47;;;;;;;24.32;63.78;98797.66;6132021;23;20210;-92
2022/06/24 05:37:36;;;;;;;4.37;1.90;;;;;;;24.22;63.94;98800.56;6131909;23;20144;-92
2022/06/24 05:40:02;;;;;;;9.20;2.83;;;;;;;24.27;63.79;98810.75;6131671;23;20179;-89
2022/06/24 05:42:27;;;;;;;4.83;2.20;;;;;;;24.36;63.25;98809.72;6130132;23;20174;-92
2022/06/24 05:44:53;;;;;;;4.80;2.10;;;;;;;24.50;61.90;98806.31;6155531;23;20201;-91
2022/06/24 05:47:18;;;;;;;4.37;1.70;;;;;;;24.54;62.97;98810.28;6155688;23;20155;-91
2022/06/24 05:49:44;;;;;;;4.30;1.50;;;;;;;24.44;62.19;98810.53;6130136;23;20536;-90
2022/06/24 05:52:09;;;;;;;3.63;1.60;;;;;;;24.61;62.12;98813.91;6155546;23;20147;-92
2022/06/24 05:57:18;;;;;;;5.90;2.43;;;;;;;24.85;61.30;98816.47;6156549;23;20202;-90
2022/06/24 05:59:44;;;;;;;7.67;2.90;;;;;;;25.07;61.26;98820.16;6131410;23;20234;-90
2022/06/24 06:02:09;;;;;;;4.33;2.50;;;;;;;25.35;60.57;98817.72;6157058;23;20177;-91
2022/06/24 06:04:35;;;;;;;4.53;2.47;;;;;;;25.54;57.57;98822.63;6131359;23;20266;-90
2022/06/24 06:07:00;;;;;;;6.00;2.50;;;;;;;25.61;55.86;98828.91;6157388;23;20174;-90
2022/06/24 06:09:26;;;;;;;4.93;2.20;;;;;;;25.77;56.07;98820.69;6157704;23;20217;-90
2022/06/24 06:11:52;;;;;;;7.67;2.87;;;;;;;25.96;55.25;98827.38;6131236;23;20185;-89
2022/06/24 06:14:17;;;;;;;4.73;2.07;;;;;;;26.16;54.32;98831.19;6157665;23;20158;-91
2022/06/24 06:16:42;;;;;;;4.30;2.20;;;;;;;26.33;53.70;98829.97;6131263;23;20155;-91
2022/06/24 06:19:08;;;;;;;4.17;2.30;;;;;;;26.29;54.09;98839.41;6156914;23;20218;-91
2022/06/24 06:21:33;;;;;;;4.63;2.73;;;;;;;26.22;54.99;98841.19;6156872;23;20536;-91
2022/06/24 06:23:59;;;;;;;12.13;2.30;;;;;;;26.22;55.42;98843.88;6131520;23;20205;-92
2022/06/24 06:26:24;;;;;;;2.77;1.63;;;;;;;26.34;54.22;98830.78;6156900;23;20152;-92
2022/06/24 06:28:50;;;;;;;4.13;2.60;;;;;;;26.24;52.82;98833.78;6156761;23;20151;-91
2022/06/24 06:31:15;;;;;;;5.27;2.30;;;;;;;26.37;53.04;98841.16;6156807;23;20177;-90
2022/06/24 06:33:41;;;;;;;7.37;2.43;;;;;;;26.43;53.38;98835.03;6131143;23;20214;-90
2022/06/24 06:36:11;;;;;;;4.93;2.50;;;;;;;26.80;52.68;98849.19;6132397;23;20213;-90
2022/06/24 06:38:38;;;;;;;3.88;2.17;;;;;;;27.10;52.33;98857.09;6131101;23;20201;-90
2022/06/24 06:41:04;;;;;;;6.80;2.03;;;;;;;27.10;51.64;98854.41;6156546;23;20155;-90
2022/06/24 06:43:30;;;;;;;3.55;2.08;;;;;;;27.28;51.77;98850.25;6156993;23;20485;-89
2022/06/24 06:45:56;;;;;;;4.55;2.72;;;;;;;27.33;52.23;98847.00;6131723;23;20272;-90
2022/06/24 06:48:22;;;;;;;4.50;2.20;;;;;;;27.59;50.33;98841.00;6131187;23;20159;-89
2022/06/24 06:50:55;;;;;;;8.73;2.40;;;;;;;27.80;49.89;98831.03;6130781;23;20492;-90
2022/06/24 06:53:21;;;;;;;5.03;2.78;;;;;;;28.03;50.06;98831.59;6130484;23;20230;-89
2022/06/24 06:55:46;;;;;;;4.30;1.48;;;;;;;28.04;50.31;98832.41;6130595;23;20187;-92
2022/06/24 06:58:12;;;;;;;8.38;2.20;;;;;;;27.86;50.20;98824.81;6130838;23;20169;-90
2022/06/24 07:00:37;;;;;;;4.50;1.42;;;;;;;28.10;49.80;98815.47;6157159;23;20147;-91
2022/06/24 07:03:02;;;;;;;6.68;1.85;;;;;;;28.14;49.37;98818.59;6157545;23;20151;-90
2022/06/24 07:05:28;;;;;;;3.22;1.55;;;;;;;28.21;49.60;98811.38;6130717;23;20182;-90
2022/06/24 07:07:53;;;;;;;3.65;1.95;;;;;;;28.26;49.90;98815.13;6130735;23;20165;-89
2022/06/24 07:10:19;;;;;;;4.60;2.13;;;;;;;28.64;49.08;98808.22;6156299;23;20238;-90
2022/06/24 07:12:44;;;;;;;6.75;2.13;;;;;;;28.80;48.02;98806.22;6156710;23;20172;-89
2022/06/24 07:15:14;;;;;;;2.95;1.38;;;;;;;28.74;47.42;98807.84;6157069;23;20147;-90
2022/06/24 07:17:40;;;;;;;2.28;1.45;;;;;;;28.67;46.28;98811.56;6156718;23;20161;-90
2022/06/24 07:20:06;;;;;;;2.75;1.38;;;;;;;28.87;46.40;98804.34;6156632;23;20148;-89
2022/06/24 07:22:31;;;;;;;2.88;1.58;;;;;;;29.04;48.13;98813.69;6156529;23;20158;-88
2022/06/24 07:24:57;;;;;;;5.88;2.00;;;;;;;29.12;45.75;98817.03;6130782;23;20193;-89
2022/06/24 07:27:22;;;;;;;4.90;1.73;;;;;;;29.28;47.14;98820.38;6130558;23;20166;-90
2022/06/24 07:29:48;;;;;;;6.70;1.70;;;;;;;29.13;44.89;98823.28;6130758;23;20155;-89
2022/06/24 07:32:13;;;;;;;2.50;1.55;;;;;;;29.22;46.53;98832.84;6130463;23;20151;-89
2022/06/24 07:34:39;;;;;;;5.22;2.13;;;;;;;28.88;46.39;98841.09;6131064;23;20174;-91
2022/06/24 07:37:04;;;;;;;9.88;2.00;;;;;;;28.89;48.44;98834.66;6130686;23;20482;-89
2022/06/24 07:39:30;;;;;;;3.33;1.77;;;;;;;28.93;47.70;98828.63;6156794;23;20211;-89
2022/06/24 07:41:57;;;;;;;3.40;1.30;;;;;;;29.06;47.08;98828.66;6156377;23;20158;-90
2022/06/24 07:44:23;;;;;;;4.30;1.63;;;;;;;29.07;46.72;98824.09;6130335;23;20183;-90
2022/06/24 07:46:49;;;;;;;3.60;2.03;;;;;;;29.20;48.35;98833.06;6155980;23;20480;-90
2022/06/24 07:49:15;;;;;;;5.70;2.00;;;;;;;29.33;48.43;98826.84;6130643;23;20230;-90
2022/06/24 07:51:41;;;;;;;5.20;1.60;;;;;;;29.44;47.08;98834.31;6155944;23;20602;-91
2022/06/24 07:54:07;;;;;;;4.03;1.67;;;;;;;29.52;46.49;98827.88;6157051;23;20209;-90
2022/06/24 07:59:18;;;;;;;3.38;1.52;;;;;;;29.98;45.67;98819.75;6156036;23;20219;-90
2022/06/24 08:01:44;;;;;;;4.20;1.63;;;;;;;30.36;46.04;98815.25;6130162;23;20186;-91
2022/06/24 08:04:09;;;;;;;3.80;1.25;;;;;;;30.43;45.16;98806.06;6130200;23;20187;-91
2022/06/24 08:06:40;;;;;;;4.47;1.80;;;;;;;30.54;43.80;98812.69;6155707;23;20151;-90
2022/06/24 08:09:07;;;;;;;3.72;1.42;;;;;;;30.84;44.12;98815.66;6130180;23;20143;-90
2022/06/24 08:11:33;;;;;;;3.10;1.75;;;;;;;30.98;40.29;98814.53;6130437;23;20588;-89
2022/06/24 08:13:59;;;;;;;3.45;1.45;;;;;;;31.02;41.29;98813.88;6130751;23;20169;-89
2022/06/24 08:16:24;;;;;;;2.90;1.10;;;;;;;30.96;39.99;98812.03;6131114;23;20178;-90
2022/06/24 08:18:51;;;;;;;2.60;1.20;;;;;;;31.24;41.91;98818.91;6130698;23;20623;-90
2022/06/24 08:21:16;;;;;;;1.92;1.05;;;;;;;31.32;37.93;98805.94;6156162;23;20199;-89
2022/06/24 08:23:42;;;;;;;3.88;2.20;;;;;;;31.46;37.54;98812.09;6129966;23;20163;-89
2022/06/24 08:26:07;;;;;;;1.63;1.00;;;;;;;31.49;38.08;98812.50;6156107;23;20151;-89
2022/06/24 08:28:32;;;;;;;3.45;1.63;;;;;;;31.69;37.54;98806.03;6130377;23;20169;-90
2022/06/24 08:30:58;;;;;;;2.83;0.90;;;;;;;31.90;36.37;98806.44;6131133;23;20241;-90
2022/06/24 08:33:23;;;;;;;4.03;1.52;;;;;;;32.04;37.02;98805.28;6130146;23;20229;-90
2022/06/24 08:35:49;;;;;;;3.92;1.25;;;;;;;32.40;37.19;98804.44;6130039;23;20201;-89
2022/06/24 08:38:17;;;;;;;2.60;1.17;;;;;;;32.31;37.15;98804.97;6155736;23;20711;-91
2022/06/24 08:40:46;;;;;;;4.78;1.20;;;;;;;32.39;37.93;98794.63;6130679;23;20582;-89
2022/06/24 08:43:12;;;;;;;3.55;1.40;;;;;;;32.50;35.77;98798.44;6129997;23;20552;-90
2022/06/24 08:45:39;;;;;;;3.15;1.00;;;;;;;32.53;33.98;98798.88;6126027;23;20199;-89
2022/06/24 08:48:09;;;;;;;1.98;0.90;;;;;;;32.42;33.43;98798.75;6100628;23;20242;-88
2022/06/24 08:50:35;;;;;;;3.90;1.20;;;;;;;32.34;34.73;98790.97;6100524;23;20187;-90
2022/06/24 08:53:04;;;;;;;1.73;0.65;;;;;;;32.30;33.23;98803.31;6126485;23;20569;-90
2022/06/24 08:55:34;;;;;;;3.75;1.17;;;;;;;32.23;33.39;98792.56;6126232;23;20152;-89
2022/06/24 08:58:04;;;;;;;2.08;0.88;;;;;;;32.23;32.12;98790.66;6126583;23;20159;-89
2022/06/24 09:00:30;;;;;;;4.50;0.90;;;;;;;32.42;36.53;98779.78;6101338;23;20167;-89
2022/06/24 09:02:56;;;;;;;1.02;0.75;;;;;;;32.65;33.07;98785.34;6101070;23;20160;-90
2022/06/24 09:05:26;;;;;;;2.28;1.00;;;;;;;32.54;33.30;98786.97;6125855;23;20207;-89
2022/06/24 09:08:06;;;;;;;2.95;1.48;;;;;;;32.82;34.43;98783.63;6126098;23;20485;-89
2022/06/24 09:10:33;;;;;;;1.52;0.85;;;;;;;32.89;34.23;98781.63;6100302;23;20235;-89
2022/06/24 09:12:59;;;;;;;1.85;0.85;;;;;;;32.88;31.96;98780.00;6100746;23;20243;-89
2022/06/24 09:15:25;;;;;;;2.88;1.05;;;;;;;32.93;31.89;98782.84;6126857;23;20561;-90
2022/06/24 09:17:50;;;;;;;1.40;0.70;;;;;;;32.82;32.50;98780.91;6127069;23;20158;-90
2022/06/24 09:20:19;;;;;;;1.77;0.98;;;;;;;32.71;31.55;98773.56;6102352;23;20497;-89
2022/06/24 09:22:45;;;;;;;2.17;1.08;;;;;;;32.83;32.44;98773.59;6102279;23;20239;-89
2022/06/24 09:25:11;;;;;;;5.47;1.88;;;;;;;32.93;31.22;98766.53;6128071;23;20203;-90
2022/06/24 09:27:43;;;;;;;2.00;1.10;;;;;;;33.30;30.35;98768.06;6102540;23;20148;-90
2022/06/24 09:30:14;;;;;;;1.35;0.73;;;;;;;33.10;34.13;98764.81;6102344;23;20182;-91
2022/06/24 09:32:54;;;;;;;1.55;0.75;;;;;;;33.30;32.09;98773.50;6128159;23;20147;-91
2022/06/24 09:35:22;;;;;;;1.92;1.02;;;;;;;33.63;32.51;98769.38;6103033;23;20147;-89
2022/06/24 09:37:49;;;;;;;2.05;0.95;;;;;;;33.90;31.83;98775.97;6102503;23;20156;-88
2022/06/24 09:40:28;;;;;;;2.65;1.00;;;;;;;34.06;30.38;98777.13;6102735;23;20454;-89
2022/06/24 09:43:02;;;;;;;2.05;0.90;;;;;;;33.99;31.11;98772.63;6128369;23;20152;-89
2022/06/24 09:45:47;;;;;;;2.30;0.80;;;;;;;34.08;30.05;98775.84;6127567;23;20191;-90
2022/06/24 09:48:32;;;;;;;1.75;1.00;;;;;;;34.17;29.59;98770.88;6102087;23;20159;-92
2022/06/24 09:51:05;;;;;;;1.73;0.75;;;;;;;34.13;31.84;98772.41;6103126;23;20483;-91
2022/06/24 09:53:35;;;;;;;4.32;0.93;;;;;;;33.91;29.39;98783.09;6102448;23;20155;-91
2022/06/24 09:56:01;;;;;;;3.53;0.82;;;;;;;33.72;29.75;98776.13;6127581;23;20148;-90
2022/06/24 09:58:27;;;;;;;5.35;1.20;;;;;;;33.73;30.41;98777.75;6102320;23;20468;-90
2022/06/24 10:00:53;;;;;;;3.78;0.77;;;;;;;33.65;29.21;98775.44;6102520;23;20162;-89
2022/06/24 10:03:19;;;;;;;3.13;1.00;;;;;;;33.59;29.88;98776.38;6127520;23;20147;-89
2022/06/24 10:05:47;;;;;;;1.33;0.60;;;;;;;33.38;30.02;98765.00;6102577;23;20612;-89
2022/06/24 10:08:22;;;;;;;3.17;1.08;;;;;;;33.06;30.17;98766.38;6127536;23;20166;-89
2022/06/24 10:10:51;;;;;;;2.50;0.80;;;;;;;32.98;30.83;98766.69;6127795;23;20249;-91
2022/06/24 10:13:27;;;;;;;1.88;1.08;;;;;;;33.10;30.16;98772.19;6127440;23;20147;-91
2022/06/24 10:15:55;;;;;;;5.68;0.80;;;;;;;33.24;31.40;98760.84;6127754;23;20559;-90
2022/06/24 10:18:26;;;;;;;1.30;0.68;;;;;;;33.45;30.88;98755.88;6127182;23;20152;-91
2022/06/24 10:20:56;;;;;;;1.70;0.90;;;;;;;33.53;30.89;98750.91;6128042;23;20145;-91
2022/06/24 10:23:47;;;;;;;1.52;0.77;;;;;;;33.62;31.09;98743.28;6102152;23;20234;-88
2022/06/24 10:26:26;;;;;;;1.15;0.52;;;;;;;33.82;31.24;98738.28;6122206;23;20591;-90
2022/06/24 10:29:03;;;;;;;1.38;0.80;;;;;;;34.14;30.54;98739.53;6127710;23;20173;-90
2022/06/24 10:31:56;;;;;;;2.42;1.20;;;;;;;34.20;30.21;98738.56;6101566;23;20160;-91
2022/06/24 10:37:03;;;;;;;2.65;1.00;;;;;;;34.30;29.83;98736.06;6127084;23;20160;-90
2022/06/24 10:39:32;;;;;;;2.35;1.10;;;;;;;34.32;30.92;98733.91;6101652;23;20148;-90
2022/06/24 10:41:59;;;;;;;2.05;1.05;;;;;;;34.55;29.42;98733.84;6101941;23;20155;-89
2022/06/24 10:44:25;;;;;;;2.65;1.38;;;;;;;34.61;27.79;98734.75;6101689;23;20249;-90
2022/06/24 10:47:05;;;;;;;1.30;0.77;;;;;;;34.89;29.72;98733.88;6127062;23;20193;-89
2022/06/24 10:49:52;;;;;;;5.35;1.10;;;;;;;34.91;27.68;98729.00;6127340;23;20151;-90
2022/06/24 10:52:39;;;;;;;3.42;1.40;;;;;;;34.58;30.04;98733.34;6101390;23;20460;-89
2022/06/24 10:55:29;;;;;;;4.57;1.05;;;;;;;34.67;29.93;98724.78;6126957;23;20174;-90
2022/06/24 10:57:55;;;;;;;1.88;0.75;;;;;;;34.77;28.60;98731.25;6127641;23;20132;-89
2022/06/24 11:00:39;;;;;;;3.72;1.27;;;;;;;34.86;29.65;98727.03;6127293;23;20446;-89
2022/06/24 11:03:05;;;;;;;2.67;0.95;;;;;;;34.93;28.64;98724.16;6101303;23;20154;-90
2022/06/24 11:05:41;;;;;;;2.50;1.02;;;;;;;34.99;29.86;98723.13;6126674;23;20172;-90
2022/06/24 11:08:13;;;;;;;3.75;1.48;;;;;;;35.25;28.40;98722.50;6126940;23;20171;-89
2022/06/24 11:10:39;;;;;;;4.32;1.17;;;;;;;35.33;28.17;98722.09;6126654;23;20607;-90
2022/06/24 11:13:04;;;;;;;5.82;0.80;;;;;;;35.37;29.39;98727.88;6101908;23;20171;-90
2022/06/24 11:15:34;;;;;;;2.13;0.90;;;;;;;35.51;28.39;98727.25;6101493;23;20234;-90
2022/06/24 11:18:09;;;;;;;3.75;1.02;;;;;;;35.34;29.52;98723.75;6102405;23;20191;-90
2022/06/24 11:20:37;;;;;;;2.88;1.17;;;;;;;35.02;28.15;98730.81;6101533;23;20155;-90
2022/06/24 11:23:10;;;;;;;2.08;1.10;;;;;;;35.18;28.25;98722.69;6100921;23;20278;-89
2022/06/24 11:25:38;;;;;;;2.72;1.38;;;;;;;35.53;26.80;98719.72;6102357;23;20466;-90
2022/06/24 11:28:04;;;;;;;2.05;1.00;;;;;;;35.81;27.92;98713.25;6098952;23;20175;-90
2022/06/24 11:30:29;;;;;;;2.00;0.90;;;;;;;35.79;27.32;98712.69;6097646;23;20815;-94
2022/06/24 11:32:56;;;;;;;7.93;1.10;;;;;;;35.50;28.44;98717.44;6072207;23;20219;-89
2022/06/24 11:35:23;;;;;;;3.17;0.73;;;;;;;35.56;27.16;98719.19;6097247;23;20144;-91
2022/06/24 11:37:49;;;;;;;2.30;1.00;;;;;;;35.60;26.73;98722.25;6097247;23;20164;-90
2022/06/24 11:40:26;;;;;;;2.67;0.75;;;;;;;35.22;27.27;98723.03;6072286;23;20235;-89
2022/06/24 11:42:52;;;;;;;2.83;1.02;;;;;;;35.42;27.15;98725.22;6097605;23;20145;-89
2022/06/24 11:45:32;;;;;;;2.50;1.10;;;;;;;35.43;27.67;98730.41;6072030;23;20176;-90
2022/06/24 11:47:58;;;;;;;2.30;0.90;;;;;;;35.62;27.19;98723.63;6071927;23;20156;-89
2022/06/24 11:50:24;;;;;;;2.20;0.77;;;;;;;35.77;27.60;98723.03;6072438;23;20228;-89
2022/06/24 11:52:49;;;;;;;1.85;1.00;;;;;;;35.78;28.26;98717.31;6098167;23;20156;-89
2022/06/24 11:55:27;;;;;;;2.40;0.85;;;;;;;35.92;27.81;98723.22;6072082;23;20152;-89
2022/06/24 11:57:54;;;;;;;1.67;0.85;;;;;;;36.02;26.93;98725.28;6097883;23;20211;-90
2022/06/24 12:00:20;;;;;;;2.22;0.80;;;;;;;36.05;26.81;98728.34;6072068;23;20156;-88
2022/06/24 12:02:46;;;;;;;2.03;1.08;;;;;;;36.25;26.10;98722.28;6097068;23;20231;-89
2022/06/24 12:05:12;;;;;;;5.13;0.90;;;;;;;36.40;27.03;98719.69;6071758;23;20616;-89
2022/06/24 12:07:38;;;;;;;1.85;0.80;;;;;;;36.43;26.90;98713.72;6072016;23;20250;-91
2022/06/24 12:10:06;;;;;;;2.20;1.10;;;;;;;36.38;26.97;98714.50;6073243;23;20164;-89
2022/06/24 12:12:31;;;;;;;2.65;0.85;;;;;;;36.40;26.73;98727.91;6071739;23;20168;-91
2022/06/24 12:14:57;;;;;;;1.77;0.85;;;;;;;36.01;25.99;98731.84;6072394;23;20175;-90
2022/06/24 12:17:22;;;;;;;2.55;1.13;;;;;;;36.10;26.70;98730.28;6097700;23;20219;-90
2022/06/24 12:20:03;;;;;;;2.47;0.82;;;;;;;36.33;27.46;98730.00;6072212;23;20215;-90
2022/06/24 12:22:30;;;;;;;2.10;0.77;;;;;;;35.99;26.77;98723.03;6097417;23;20232;-90
2022/06/24 12:25:01;;;;;;;1.38;0.60;;;;;;;36.22;26.53;98720.88;6072679;23;20188;-90
2022/06/24 12:27:37;;;;;;;2.00;0.90;;;;;;;36.59;27.45;98714.75;6097034;23;20163;-89
2022/06/24 12:30:18;;;;;;;2.45;0.80;;;;;;;36.14;27.14;98723.25;6096999;23;20156;-90
2022/06/24 12:32:51;;;;;;;1.40;0.85;;;;;;;36.04;28.17;98721.22;6097793;23;20207;-90
2022/06/24 12:35:31;;;;;;;1.85;1.10;;;;;;;36.36;26.00;98715.84;6072960;23;20240;-89
2022/06/24 12:37:56;;;;;;;3.00;1.13;;;;;;;36.44;26.75;98714.56;6097002;23;20155;-90
2022/06/24 12:40:22;;;;;;;2.38;0.82;;;;;;;36.20;26.62;98714.03;6071898;23;20157;-92
2022/06/24 12:43:06;;;;;;;1.48;0.77;;;;;;;35.81;26.76;98717.88;6072215;23;20156;-91
2022/06/24 12:45:38;;;;;;;3.35;1.15;;;;;;;35.87;26.79;98723.16;6097378;23;20168;-89
2022/06/24 12:51:04;;;;;;;2.78;0.98;;;;;;;35.39;27.30;98729.28;6097273;23;20148;-91
2022/06/24 12:53:30;;;;;;;2.58;0.90;;;;;;;35.62;27.86;98717.34;6099217;23;20220;-90
2022/06/24 12:55:56;;;;;;;1.60;0.90;;;;;;;35.51;27.33;98716.34;6099550;23;20148;-90
2022/06/24 12:58:22;;;;;;;2.05;0.68;;;;;;;35.73;27.80;98713.69;6098857;23;20148;-90
2022/06/24 13:00:47;;;;;;;3.33;0.70;;;;;;;35.65;27.44;98714.13;6098861;23;20237;-90
2022/06/24 13:03:17;;;;;;;2.53;0.88;;;;;;;35.73;26.74;98714.53;6098849;23;20180;-90
2022/06/24 13:05:43;;;;;;;1.55;0.80;;;;;;;35.59;27.23;98718.69;6098704;23;20184;-90
2022/06/24 13:08:09;;;;;;;2.25;0.90;;;;;;;35.42;26.93;98717.88;6099478;23;20475;-90
2022/06/24 13:10:35;;;;;;;2.10;0.95;;;;;;;35.35;26.66;98721.84;6098999;23;20569;-91
2022/06/24 13:13:01;;;;;;;3.90;0.90;;;;;;;35.38;27.74;98711.25;6073657;23;20145;-91
2022/06/24 13:15:26;;;;;;;1.60;0.80;;;;;;;35.32;28.65;98717.72;6098753;23;20144;-91
2022/06/24 13:17:52;;;;;;;3.80;1.00;;;;;;;35.32;28.18;98715.00;6073513;23;20216;-90
2022/06/24 13:20:18;;;;;;;1.83;0.70;;;;;;;35.41;27.70;98721.66;6073906;23;20167;-90
2022/06/24 13:22:43;;;;;;;4.70;1.20;;;;;;;35.41;28.25;98716.22;6073427;23;20488;-91
2022/06/24 13:25:09;;;;;;;2.28;1.00;;;;;;;35.48;27.83;98710.59;6073646;23;20180;-89
2022/06/24 13:27:36;;;;;;;2.08;0.93;;;;;;;35.69;27.22;98702.44;6073799;23;20227;-90
2022/06/24 13:30:03;;;;;;;3.47;1.25;;;;;;;35.84;28.82;98711.94;6098546;23;20175;-90
2022/06/24 13:32:29;;;;;;;3.85;1.50;;;;;;;35.59;28.08;98707.78;6073757;23;20171;-91
2022/06/24 13:34:55;;;;;;;1.00;0.63;;;;;;;35.58;28.49;98700.69;6073293;23;20164;-92
2022/06/24 13:37:20;;;;;;;2.00;1.00;;;;;;;35.70;28.69;98700.56;6073515;23;20247;-90
2022/06/24 13:39:46;;;;;;;1.17;0.88;;;;;;;35.69;28.92;98698.94;6073039;23;20152;-91
2022/06/24 13:42:11;;;;;;;1.42;0.80;;;;;;;35.75;28.58;98706.91;6098891;23;20148;-90
2022/06/24 13:44:37;;;;;;;1.02;0.60;;;;;;;35.74;26.75;98702.53;6073473;23;20255;-91
2022/06/24 13:47:03;;;;;;;3.80;1.30;;;;;;;35.63;27.10;98705.38;6097489;23;20455;-90
2022/06/24 13:49:28;;;;;;;1.67;0.70;;;;;;;35.44;27.97;98703.97;6072511;23;20180;-90
2022/06/24 13:51:54;;;;;;;3.67;1.15;;;;;;;35.37;27.47;98704.16;6098357;23;20474;-91
2022/06/24 13:54:19;;;;;;;2.28;0.65;;;;;;;35.29;27.93;98695.59;6098312;23;20163;-91
2022/06/24 13:56:45;;;;;;;1.98;1.00;;;;;;;35.43;28.84;98696.91;6098274;23;20148;-89
2022/06/24 13:59:11;;;;;;;2.53;1.30;;;;;;;35.28;27.73;98694.75;6098087;23;20256;-90
2022/06/24 14:01:36;;;;;;;3.60;1.38;;;;;;;35.36;28.16;98691.59;6098223;23;20534;-90
2022/06/24 14:04:02;;;;;;;2.55;0.90;;;;;;;35.59;28.53;98691.41;6097662;23;20152;-91
2022/06/24 14:06:28;;;;;;;3.45;0.93;;;;;;;35.77;26.72;98687.56;6098037;23;20253;-91
2022/06/24 14:08:54;;;;;;;1.23;0.82;;;;;;;35.71;27.17;98683.97;6097970;23;20577;-91
2022/06/24 14:11:19;;;;;;;2.20;0.95;;;;;;;35.72;25.84;98677.41;6098038;23;20231;-91
2022/06/24 14:13:45;;;;;;;2.92;1.00;;;;;;;35.82;26.79;98673.16;6098104;23;20152;-92
2022/06/24 14:16:11;;;;;;;1.63;0.68;;;;;;;35.84;27.38;98668.28;6097931;23;20148;-90
2022/06/24 14:18:36;;;;;;;1.50;0.65;;;;;;;35.99;27.48;98671.19;6098404;23;20159;-91
2022/06/24 14:21:03;;;;;;;1.75;0.70;;;;;;;35.83;26.39;98663.88;6097725;23;20152;-92
2022/06/24 14:26:13;;;;;;;6.50;1.02;;;;;;;36.00;26.21;98661.94;6098688;23;20252;-92
2022/06/24 14:28:38;;;;;;;2.85;1.58;;;;;;;36.24;26.78;98660.59;6073011;23;20164;-92
2022/06/24 14:31:04;;;;;;;3.45;0.65;;;;;;;36.47;26.65;98654.81;6073336;23;20160;-92
2022/06/24 14:33:29;;;;;;;1.98;0.90;;;;;;;36.54;26.02;98655.44;6073012;23;20242;-92
2022/06/24 14:35:55;;;;;;;1.98;0.82;;;;;;;36.53;25.39;98659.25;6072954;23;20586;-92
2022/06/24 14:41:04;;;;;;;1.83;1.10;;;;;;;36.30;25.08;98648.63;6098637;23;20148;-92
2022/06/24 14:43:30;;;;;;;3.67;0.90;;;;;;;36.28;25.42;98642.59;6073427;23;20519;-91
2022/06/24 14:45:56;;;;;;;1.35;0.60;;;;;;;36.35;25.57;98659.59;6097120;23;20206;-92
2022/06/24 14:48:23;;;;;;;2.22;0.70;;;;;;;36.12;26.78;98668.09;6072527;23;20494;-90
2022/06/24 14:50:49;;;;;;;2.38;1.05;;;;;;;35.69;27.78;98664.28;6072387;23;20191;-91
2022/06/24 14:53:14;;;;;;;2.20;0.80;;;;;;;35.09;28.88;98663.41;6097181;23;20224;-90
2022/06/24 14:55:40;;;;;;;4.40;0.95;;;;;;;34.62;29.92;98667.53;6097321;23;20193;-92
2022/06/24 14:58:05;;;;;;;3.30;1.13;;;;;;;34.34;30.41;98657.44;6072442;23;20225;-91
2022/06/24 15:00:30;;;;;;;2.42;1.00;;;;;;;34.26;30.71;98653.22;6072617;23;20207;-92
2022/06/24 15:02:56;;;;;;;2.03;1.15;;;;;;;34.04;31.61;98649.53;6096547;23;20220;-93
2022/06/24 15:05:23;;;;;;;2.90;1.42;;;;;;;33.90;31.73;98648.16;6097443;23;20184;-91
2022/06/24 15:07:49;;;;;;;2.75;1.20;;;;;;;33.49;32.19;98641.03;6097734;23;20569;-91
2022/06/24 15:10:14;;;;;;;2.58;1.30;;;;;;;33.61;32.28;98641.88;6072785;23;20607;-92
2022/06/24 15:12:40;;;;;;;3.53;1.13;;;;;;;32.99;32.70;98657.00;6072454;23;20180;-93
2022/06/24 15:15:06;;;;;;;2.88;1.05;;;;;;;32.76;33.55;98648.81;6097230;23;20149;-91
2022/06/24 15:17:32;;;;;;;3.00;0.80;;;;;;;33.15;33.54;98645.44;6097581;23;20152;-92
2022/06/24 15:19:58;;;;;;;2.75;0.98;;;;;;;32.97;32.71;98642.81;6072365;23;20153;-93
2022/06/24 15:22:23;;;;;;;1.67;0.90;;;;;;;32.95;33.26;98641.38;6097607;23;20223;-92
2022/06/24 15:24:50;;;;;;;2.42;1.13;;;;;;;33.40;32.71;98645.19;6097381;23;20200;-91
2022/06/24 15:27:17;;;;;;;3.30;0.90;;;;;;;33.35;31.74;98640.47;6097138;23;20148;-92
2022/06/24 15:29:42;;;;;;;2.38;1.20;;;;;;;33.30;31.38;98645.78;6098119;23;20228;-91
2022/06/24 15:32:08;;;;;;;4.40;1.10;;;;;;;33.06;31.56;98644.16;6072602;23;20542;-91
2022/06/24 15:34:34;;;;;;;1.38;0.98;;;;;;;33.17;31.79;98642.50;6097941;23;20149;-92
2022/06/24 15:36:59;;;;;;;2.70;1.35;;;;;;;32.98;31.87;98638.19;6096683;23;20227;-92
2022/06/24 15:39:25;;;;;;;3.55;1.27;;;;;;;33.37;31.92;98638.31;6096215;23;20183;-92
2022/06/24 15:41:51;;;;;;;1.60;0.90;;;;;;;32.91;31.32;98638.34;6071037;23;20497;-92
2022/06/24 15:44:17;;;;;;;1.90;1.00;;;;;;;32.39;32.67;98644.59;6096363;23;20173;-91
2022/06/24 15:46:42;;;;;;;5.50;1.40;;;;;;;32.54;32.95;98642.28;6096308;23;20149;-91
2022/06/24 15:49:08;;;;;;;2.30;1.15;;;;;;;32.55;32.34;98638.50;6095981;23;20538;-93
2022/06/24 15:51:33;;;;;;;2.63;1.02;;;;;;;32.60;32.92;98635.94;6071262;23;20164;-93
2022/06/24 15:53:59;;;;;;;2.75;1.30;;;;;;;32.74;32.43;98637.38;6072243;23;20187;-92
2022/06/24 15:56:25;;;;;;;3.17;0.82;;;;;;;33.00;32.24;98636.06;6097200;23;20531;-92
2022/06/24 15:58:51;;;;;;;2.45;1.17;;;;;;;33.03;32.35;98641.03;6097257;23;20163;-93
2022/06/24 16:01:17;;;;;;;3.17;1.35;;;;;;;33.17;32.85;98639.78;6072282;23;20160;-91
2022/06/24 16:03:46;;;;;;;1.73;1.08;;;;;;;32.98;32.70;98649.91;6097536;23;20176;-93
2022/06/24 16:06:12;;;;;;;3.00;1.02;;;;;;;32.77;32.94;98648.59;6097152;23;20255;-93
2022/06/24 16:08:37;;;;;;;2.85;1.13;;;;;;;32.61;33.11;98653.88;6072006;23;20183;-93
2022/06/24 16:11:04;;;;;;;4.88;1.00;;;;;;;32.43;33.31;98657.47;6071929;23;20176;-91
2022/06/24 16:13:30;;;;;;;2.05;0.80;;;;;;;32.36;33.66;98662.16;6097189;23;20171;-91
2022/06/24 16:15:56;;;;;;;3.47;0.98;;;;;;;31.96;33.34;98655.59;6097083;23;20569;-91
2022/06/24 16:18:22;;;;;;;1.95;0.88;;;;;;;31.81;33.54;98661.44;6073349;23;20167;-91
2022/06/24 16:20:48;;;;;;;1.98;1.10;;;;;;;31.69;34.12;98663.25;6097119;23;20477;-93
2022/06/24 16:23:14;;;;;;;3.60;1.20;;;;;;;31.93;33.67;98664.19;6097068;23;20604;-92
2022/06/24 16:28:42;;;;;;;4.50;1.33;;;;;;;31.95;33.63;98676.47;6097081;23;20211;-92
2022/06/24 16:31:14;;;;;;;2.28;1.20;;;;;;;32.13;33.91;98675.63;6071954;23;20152;-92